createdAt,value
2023-08-03T00:01:40.178Z,94436.88
2023-08-03T00:04:09.743Z,94444.53
2023-08-03T00:06:39.371Z,94449.16
2023-08-03T00:09:10.364Z,94448.50
2023-08-03T00:11:40.104Z,94434.00
2023-08-03T00:14:09.701Z,94435.78
2023-08-03T00:16:39.267Z,94431.81
2023-08-03T00:19:08.819Z,94451.56
2023-08-03T00:21:38.337Z,94438.19
2023-08-03T00:24:09.190Z,94426.22
2023-08-03T00:26:38.647Z,94434.03
2023-08-03T00:29:08.203Z,94431.19
2023-08-03T00:31:37.735Z,94445.34
2023-08-03T00:34:07.287Z,94447.59
2023-08-03T00:36:36.763Z,94452.69
2023-08-03T00:39:06.857Z,94454.28
2023-08-03T00:41:37.878Z,94455.06
2023-08-03T00:44:07.408Z,94451.56
2023-08-03T00:46:36.951Z,94448.53
2023-08-03T00:49:06.644Z,94454.75
2023-08-03T00:51:37.693Z,94459.84
2023-08-03T00:54:08.573Z,94458.72
2023-08-03T00:56:39.786Z,94456.03
2023-08-03T00:59:11.538Z,94443.09
2023-08-03T01:01:43.185Z,94442.28
2023-08-03T01:04:13.204Z,94430.66
2023-08-03T01:06:42.895Z,94436.88
2023-08-03T01:09:12.584Z,94439.38
2023-08-03T01:11:45.710Z,94454.66
2023-08-03T01:14:15.712Z,94446.03
2023-08-03T01:16:45.317Z,94434.06
2023-08-03T01:19:15.850Z,94439.34
2023-08-03T01:21:48.296Z,94436.94
2023-08-03T01:24:19.171Z,94438.53
2023-08-03T01:26:49.916Z,94439.00
2023-08-03T01:29:19.446Z,94442.38
2023-08-03T01:31:51.513Z,94457.19
2023-08-03T01:34:21.035Z,94446.06
2023-08-03T01:36:50.645Z,94451.81
2023-08-03T01:39:22.900Z,94434.75
2023-08-03T01:41:52.525Z,94426.75
2023-08-03T01:44:28.336Z,94425.50
2023-08-03T01:47:00.834Z,94433.63
2023-08-03T01:49:33.711Z,94432.19
2023-08-03T01:52:03.288Z,94428.34
2023-08-03T01:54:34.166Z,94426.56
2023-08-03T01:57:03.722Z,94423.53
2023-08-03T01:59:33.316Z,94440.59
2023-08-03T02:02:03.035Z,94434.09
2023-08-03T02:04:32.663Z,94432.00
2023-08-03T02:07:10.810Z,94442.03
2023-08-03T02:09:41.636Z,94443.03
2023-08-03T02:12:11.658Z,94435.50
2023-08-03T02:14:41.141Z,94436.00
2023-08-03T02:17:10.821Z,94440.50
2023-08-03T02:19:40.554Z,94442.22
2023-08-03T02:22:10.191Z,94430.44
2023-08-03T02:24:41.143Z,94435.38
2023-08-03T02:27:10.683Z,94449.41
2023-08-03T02:29:40.206Z,94435.22
2023-08-03T02:32:10.290Z,94448.72
2023-08-03T02:34:41.267Z,94450.34
2023-08-03T02:37:11.159Z,94443.97
2023-08-03T02:39:42.609Z,94440.44
2023-08-03T02:42:12.640Z,94446.22
2023-08-03T02:44:46.359Z,94443.09
2023-08-03T02:47:17.208Z,94447.81
2023-08-03T02:49:46.876Z,94447.16
2023-08-03T02:52:16.466Z,94438.81
2023-08-03T02:54:51.809Z,94446.50
2023-08-03T02:57:23.827Z,94441.44
2023-08-03T02:59:55.371Z,94456.44
2023-08-03T03:02:25.989Z,94459.59
2023-08-03T03:04:56.612Z,94461.50
2023-08-03T03:07:28.336Z,94461.63
2023-08-03T03:10:01.822Z,94448.72
2023-08-03T03:12:33.045Z,94460.38
2023-08-03T03:15:02.800Z,94436.81
2023-08-03T03:17:32.322Z,94443.66
2023-08-03T03:20:04.670Z,94436.47
2023-08-03T03:22:34.321Z,94434.56
2023-08-03T03:25:06.736Z,94449.53
2023-08-03T03:27:36.263Z,94445.88
2023-08-03T03:30:08.096Z,94446.06
2023-08-03T03:32:37.763Z,94452.78
2023-08-03T03:35:09.231Z,94455.16
2023-08-03T03:37:39.354Z,94443.44
2023-08-03T03:40:12.755Z,94459.06
2023-08-03T03:42:46.337Z,94464.16
2023-08-03T03:45:16.091Z,94463.22
2023-08-03T03:47:45.959Z,94471.22
2023-08-03T03:50:15.813Z,94462.81
2023-08-03T03:52:45.639Z,94481.00
2023-08-03T03:55:20.902Z,94484.66
2023-08-03T03:57:56.280Z,94471.94
2023-08-03T04:00:25.870Z,94467.03
2023-08-03T04:02:56.196Z,94473.72
2023-08-03T04:05:27.765Z,94484.72
2023-08-03T04:07:57.324Z,94489.66
2023-08-03T04:10:28.240Z,94492.22
2023-08-03T04:12:58.293Z,94482.19
2023-08-03T04:15:28.329Z,94480.59
2023-08-03T04:17:57.885Z,94485.34
2023-08-03T04:20:32.575Z,94482.03
2023-08-03T04:23:02.092Z,94477.28
2023-08-03T04:25:34.305Z,94468.00
2023-08-03T04:28:08.079Z,94478.69
2023-08-03T04:30:40.647Z,94494.75
2023-08-03T04:33:10.993Z,94508.13
2023-08-03T04:35:42.192Z,94506.66
2023-08-03T04:38:18.747Z,94507.75
2023-08-03T04:40:55.635Z,94505.53
2023-08-03T04:43:29.379Z,94504.38
2023-08-03T04:45:58.997Z,94505.78
2023-08-03T04:48:29.700Z,94514.38
2023-08-03T04:51:00.300Z,94516.31
2023-08-03T04:53:31.165Z,94522.66
2023-08-03T04:56:02.479Z,94526.59
2023-08-03T04:58:32.574Z,94526.75
2023-08-03T05:01:02.780Z,94542.38
2023-08-03T05:03:33.534Z,94535.31
2023-08-03T05:06:04.950Z,94528.78
2023-08-03T05:08:35.676Z,94532.47
2023-08-03T05:11:06.576Z,94527.97
2023-08-03T05:13:41.414Z,94536.25
2023-08-03T05:16:11.786Z,94540.53
2023-08-03T05:18:41.592Z,94528.69
2023-08-03T05:21:11.932Z,94528.19
2023-08-03T05:23:41.969Z,94548.41
2023-08-03T05:26:12.902Z,94531.34
2023-08-03T05:28:42.540Z,94540.72
2023-08-03T05:31:12.094Z,94529.81
2023-08-03T05:33:41.697Z,94534.50
2023-08-03T05:36:11.802Z,94532.25
2023-08-03T05:38:41.379Z,94537.34
2023-08-03T05:41:18.321Z,94540.41
2023-08-03T05:43:48.610Z,94531.88
2023-08-03T05:46:20.317Z,94524.06
2023-08-03T05:48:53.327Z,94527.44
2023-08-03T05:51:29.343Z,94523.25
2023-08-03T05:53:59.880Z,94528.13
2023-08-03T05:56:30.741Z,94535.19
2023-08-03T05:59:00.373Z,94521.06
2023-08-03T06:01:29.948Z,94519.28
2023-08-03T06:03:59.477Z,94538.91
2023-08-03T06:06:30.254Z,94553.19
2023-08-03T06:09:01.652Z,94526.03
2023-08-03T06:11:33.949Z,94540.09
2023-08-03T06:14:03.672Z,94526.84
2023-08-03T06:16:33.321Z,94539.09
2023-08-03T06:19:02.983Z,94523.13
2023-08-03T06:21:32.489Z,94538.19
2023-08-03T06:24:02.592Z,94519.72
2023-08-03T06:26:37.866Z,94523.16
2023-08-03T06:29:07.858Z,94531.78
2023-08-03T06:31:40.981Z,94536.53
2023-08-03T06:34:13.809Z,94528.59
2023-08-03T06:36:45.299Z,94545.25
2023-08-03T06:39:15.082Z,94553.66
2023-08-03T06:41:46.153Z,94548.50
2023-08-03T06:44:19.375Z,94552.47
2023-08-03T06:46:48.908Z,94551.53
2023-08-03T06:49:18.427Z,94564.25
2023-08-03T06:51:48.104Z,94560.09
2023-08-03T06:54:17.804Z,94567.78
2023-08-03T06:56:48.685Z,94560.88
2023-08-03T06:59:22.207Z,94561.53
2023-08-03T07:01:55.993Z,94555.19
2023-08-03T07:04:25.476Z,94560.75
2023-08-03T07:06:54.942Z,94584.69
2023-08-03T07:09:25.617Z,94570.47
2023-08-03T07:11:56.554Z,94569.91
2023-08-03T07:14:26.066Z,94573.88
2023-08-03T07:16:55.522Z,94579.88
2023-08-03T07:19:25.050Z,94580.56
2023-08-03T07:21:56.792Z,94596.66
2023-08-03T07:24:29.232Z,94592.00
2023-08-03T07:27:01.456Z,94595.88
2023-08-03T07:29:31.461Z,94591.06
2023-08-03T07:32:00.977Z,94584.28
2023-08-03T07:34:30.754Z,94618.63
2023-08-03T07:37:01.742Z,94596.78
2023-08-03T07:39:47.734Z,94603.13
2023-08-03T07:42:35.931Z,94603.13
2023-08-03T07:45:08.233Z,94613.34
2023-08-03T07:47:37.950Z,94615.47
2023-08-03T07:50:09.508Z,94620.25
2023-08-03T07:52:40.367Z,94601.41
2023-08-03T07:55:10.857Z,94616.59
2023-08-03T07:57:42.138Z,94629.59
2023-08-03T08:00:14.166Z,94610.16
2023-08-03T08:02:43.808Z,94593.78
2023-08-03T08:05:13.657Z,94622.75
2023-08-03T08:07:43.607Z,94612.16
2023-08-03T08:10:13.411Z,94623.72
2023-08-03T08:12:44.770Z,94636.06
2023-08-03T08:15:15.224Z,94619.16
2023-08-03T08:17:44.710Z,94622.44
2023-08-03T08:20:14.727Z,94614.84
2023-08-03T08:22:44.237Z,94622.06
2023-08-03T08:25:14.159Z,94626.91
2023-08-03T08:27:45.192Z,94643.22
2023-08-03T08:30:14.833Z,94650.34
2023-08-03T08:32:44.293Z,94643.22
2023-08-03T08:35:13.942Z,94652.81
2023-08-03T08:37:43.509Z,94626.41
2023-08-03T08:40:13.970Z,94629.22
2023-08-03T08:42:44.878Z,94634.13
2023-08-03T08:45:14.396Z,94630.44
2023-08-03T08:47:44.075Z,94630.38
2023-08-03T08:56:05.503Z,94629.81
2023-08-03T09:00:49.113Z,94637.00
2023-08-03T09:03:19.320Z,94637.53
2023-08-03T09:08:52.864Z,94649.94
2023-08-03T09:11:40.132Z,94645.78
2023-08-03T09:14:15.503Z,94650.75
2023-08-03T09:16:45.221Z,94641.75
2023-08-03T09:19:14.743Z,94664.00
2023-08-03T09:27:05.177Z,94652.81
2023-08-03T09:29:36.039Z,94643.25
2023-08-03T09:32:27.319Z,94690.59
2023-08-03T09:34:57.370Z,94676.13
2023-08-03T09:40:10.716Z,94671.97
2023-08-03T09:42:42.307Z,94681.69
2023-08-03T09:47:47.213Z,94687.38
2023-08-03T09:50:17.102Z,94697.31
2023-08-03T09:52:50.327Z,94706.13
2023-08-03T09:55:30.518Z,94684.28
2023-08-03T09:58:05.573Z,94691.69
2023-08-03T10:00:37.086Z,94698.75
2023-08-03T10:03:11.651Z,94676.09
2023-08-03T10:05:50.062Z,94685.00
2023-08-03T10:08:33.406Z,94683.63
2023-08-03T10:11:05.143Z,94681.59
2023-08-03T10:13:37.670Z,94682.13
2023-08-03T10:16:09.583Z,94681.09
2023-08-03T10:21:13.801Z,94679.53
2023-08-03T10:24:19.075Z,94693.63
2023-08-03T10:26:55.520Z,94693.09
2023-08-03T10:29:59.468Z,94688.06
2023-08-03T10:32:32.517Z,94694.38
2023-08-03T10:35:40.946Z,94708.00
2023-08-03T10:38:21.025Z,94703.31
2023-08-03T10:40:50.503Z,94694.28
2023-08-03T10:43:20.042Z,94713.75
2023-08-03T10:45:49.586Z,94707.47
2023-08-03T10:48:36.030Z,94709.66
2023-08-03T10:51:05.913Z,94726.56
2023-08-03T10:53:36.069Z,94709.63
2023-08-03T10:56:12.103Z,94706.59
2023-08-03T10:58:48.829Z,94709.84
2023-08-03T11:01:24.864Z,94697.13
2023-08-03T11:03:56.710Z,94717.38
2023-08-03T11:06:27.591Z,94708.06
2023-08-03T11:09:00.277Z,94698.84
2023-08-03T11:11:33.845Z,94712.31
2023-08-03T11:14:05.598Z,94696.94
2023-08-03T11:16:37.030Z,94707.13
2023-08-03T11:19:07.986Z,94697.88
2023-08-03T11:21:37.495Z,94700.91
2023-08-03T11:24:07.361Z,94685.56
2023-08-03T11:26:36.898Z,94685.38
2023-08-03T11:29:08.277Z,94697.06
2023-08-03T11:31:44.106Z,94699.09
2023-08-03T11:34:16.502Z,94693.28
2023-08-03T11:36:49.936Z,94681.66
2023-08-03T11:39:20.730Z,94677.88
2023-08-03T11:41:51.328Z,94667.34
2023-08-03T11:44:23.792Z,94664.63
2023-08-03T11:47:08.778Z,94661.13
2023-08-03T11:49:39.773Z,94665.16
2023-08-03T11:52:09.815Z,94675.50
2023-08-03T11:54:41.169Z,94675.00
2023-08-03T11:57:28.645Z,94666.97
2023-08-03T11:59:58.534Z,94673.34
2023-08-03T12:02:41.803Z,94671.44
2023-08-03T12:05:18.068Z,94664.34
2023-08-03T12:10:28.753Z,94684.00
2023-08-03T12:13:02.439Z,94679.28
2023-08-03T12:15:32.638Z,94676.66
2023-08-03T12:18:02.128Z,94674.25
2023-08-03T12:20:36.523Z,94673.06
2023-08-03T12:23:06.290Z,94676.69
2023-08-03T12:25:37.030Z,94677.47
2023-08-03T12:28:10.662Z,94677.00
2023-08-03T12:30:41.781Z,94681.25
2023-08-03T12:33:12.736Z,94691.09
2023-08-03T12:35:46.723Z,94683.81
2023-08-03T12:38:33.574Z,94703.13
2023-08-03T12:41:09.840Z,94689.38
2023-08-03T12:43:39.341Z,94694.53
2023-08-03T12:46:14.386Z,94698.84
2023-08-03T12:48:44.216Z,94698.84
2023-08-03T12:51:15.364Z,94701.16
2023-08-03T12:53:45.775Z,94705.50
2023-08-03T12:56:15.472Z,94706.28
2023-08-03T12:58:45.703Z,94714.19
2023-08-03T13:01:15.542Z,94712.91
2023-08-03T13:03:45.079Z,94717.91
2023-08-03T13:06:15.911Z,94730.22
2023-08-03T13:08:45.472Z,94737.31
2023-08-03T13:11:15.367Z,94729.38
2023-08-03T13:13:44.881Z,94731.31
2023-08-03T13:16:14.731Z,94745.69
2023-08-03T13:18:44.393Z,94742.16
2023-08-03T13:21:17.191Z,94734.91
2023-08-03T13:23:47.970Z,94729.72
2023-08-03T13:26:17.745Z,94729.94
2023-08-03T13:28:51.565Z,94733.94
2023-08-03T13:31:22.112Z,94736.78
2023-08-03T13:33:52.550Z,94735.25
2023-08-03T13:36:23.542Z,94732.50
2023-08-03T13:38:53.203Z,94725.41
2023-08-03T13:41:23.657Z,94735.28
2023-08-03T13:43:53.233Z,94720.72
2023-08-03T13:46:22.936Z,94721.50
2023-08-03T13:48:52.468Z,94729.34
2023-08-03T13:51:24.835Z,94730.91
2023-08-03T13:53:56.401Z,94730.47
2023-08-03T13:58:58.558Z,94731.25
2023-08-03T14:04:00.632Z,94727.75
2023-08-03T14:06:32.191Z,94733.28
2023-08-03T14:11:58.761Z,94728.91
2023-08-03T14:16:57.444Z,94726.38
2023-08-03T14:19:27.478Z,94728.03
2023-08-03T14:21:59.019Z,94737.59
2023-08-03T14:24:29.366Z,94741.53
2023-08-03T14:26:58.833Z,94742.78
2023-08-03T14:29:28.317Z,94744.41
2023-08-03T14:31:57.809Z,94746.78
2023-08-03T14:35:35.726Z,94744.41
2023-08-03T14:37:18.076Z,94738.81
2023-08-03T14:39:48.121Z,94736.03
2023-08-03T14:42:17.746Z,94738.81
2023-08-03T14:44:51.135Z,94755.84
2023-08-03T14:47:21.270Z,94744.81
2023-08-03T14:52:25.297Z,94743.19
2023-08-03T14:54:55.437Z,94747.94
2023-08-03T14:57:25.140Z,94742.81
2023-08-03T14:59:55.119Z,94744.38
2023-08-03T15:02:26.005Z,94738.06
2023-08-03T15:04:56.654Z,94745.94
2023-08-03T15:07:27.848Z,94752.66
2023-08-03T15:09:59.066Z,94759.78
2023-08-03T15:12:28.621Z,94762.53
2023-08-03T15:15:09.660Z,94751.50
2023-08-03T15:17:40.301Z,94764.50
2023-08-03T15:20:12.416Z,94764.09
2023-08-03T15:22:44.185Z,94758.22
2023-08-03T15:25:14.491Z,94758.19
2023-08-03T15:27:58.325Z,94754.25
2023-08-03T15:30:58.824Z,94753.47
2023-08-03T15:33:21.483Z,94753.47
2023-08-03T15:35:52.492Z,94756.97
2023-08-03T15:38:24.413Z,94757.59
2023-08-03T15:41:02.754Z,94754.22
2023-08-03T15:43:40.546Z,94756.00
2023-08-03T15:46:19.710Z,94755.06
2023-08-03T15:51:24.552Z,94756.41
2023-08-03T15:54:05.555Z,94761.63
2023-08-03T15:56:39.429Z,94757.19
2023-08-03T15:59:09.504Z,94758.44
2023-08-03T16:01:39.040Z,94753.88
2023-08-03T16:04:08.684Z,94754.66
2023-08-03T16:06:38.153Z,94756.53
2023-08-03T16:09:09.156Z,94754.41
2023-08-03T16:11:53.286Z,94765.31
2023-08-03T16:14:24.491Z,94759.00
2023-08-03T16:16:54.042Z,94753.13
2023-08-03T16:19:24.160Z,94750.06
2023-08-03T16:21:53.922Z,94747.25
2023-08-03T16:24:24.837Z,94762.03
2023-08-03T16:26:55.092Z,94757.94
2023-08-03T16:29:25.773Z,94759.72
2023-08-03T16:31:55.540Z,94763.16
2023-08-03T16:34:28.025Z,94759.19
2023-08-03T16:36:59.063Z,94759.06
2023-08-03T16:39:30.010Z,94756.25
2023-08-03T16:41:59.574Z,94750.91
2023-08-03T16:44:29.068Z,94748.53
2023-08-03T16:46:58.532Z,94751.25
2023-08-03T16:49:28.346Z,94748.28
2023-08-03T16:51:57.927Z,94752.72
2023-08-03T16:54:28.864Z,94745.31
2023-08-03T16:56:58.351Z,94740.50
2023-08-03T16:59:27.848Z,94748.00
2023-08-03T17:01:57.400Z,94756.53
2023-08-03T17:04:26.923Z,94754.44
2023-08-03T17:06:56.722Z,94767.16
2023-08-03T17:09:26.257Z,94761.88
2023-08-03T17:11:57.490Z,94760.25
2023-08-03T17:14:27.512Z,94768.75
2023-08-03T17:16:58.006Z,94772.28
2023-08-03T17:19:27.675Z,94763.50
2023-08-03T17:21:57.430Z,94764.59
2023-08-03T17:24:27.209Z,94754.69
2023-08-03T17:26:58.244Z,94765.56
2023-08-03T17:29:27.732Z,94768.25
2023-08-03T17:32:00.216Z,94769.72
2023-08-03T17:34:29.689Z,94766.75
2023-08-03T17:37:13.122Z,94778.81
2023-08-03T17:39:42.687Z,94789.22
2023-08-03T17:42:13.616Z,94787.19
2023-08-03T17:44:43.125Z,94781.59
2023-08-03T17:47:12.664Z,94790.84
2023-08-03T17:49:42.224Z,94793.09
2023-08-03T17:52:11.815Z,94797.34
2023-08-03T17:54:41.418Z,94803.47
2023-08-03T17:57:11.478Z,94789.19
2023-08-03T17:59:42.314Z,94802.38
2023-08-03T18:02:36.171Z,94808.75
2023-08-03T18:05:06.997Z,94809.09
2023-08-03T18:07:36.483Z,94809.63
2023-08-03T18:10:07.092Z,94800.41
2023-08-03T18:12:45.817Z,94800.34
2023-08-03T18:15:17.016Z,94801.78
2023-08-03T18:17:46.618Z,94798.06
2023-08-03T18:20:16.679Z,94809.25
2023-08-03T18:22:46.182Z,94816.50
2023-08-03T18:25:15.845Z,94822.59
2023-08-03T18:27:45.396Z,94825.69
2023-08-03T18:30:16.313Z,94834.63
2023-08-03T18:32:46.660Z,94823.16
2023-08-03T18:37:45.212Z,94822.91
2023-08-03T18:40:14.843Z,94825.53
2023-08-03T18:42:44.383Z,94834.66
2023-08-03T18:45:14.176Z,94827.81
2023-08-03T18:47:45.184Z,94844.50
2023-08-03T18:50:14.890Z,94852.56
2023-08-03T18:55:15.398Z,94867.47
2023-08-03T18:57:44.919Z,94869.22
2023-08-03T19:00:16.283Z,94877.66
2023-08-03T19:02:47.316Z,94876.81
2023-08-03T19:05:17.127Z,94870.78
2023-08-03T19:07:47.624Z,94885.97
2023-08-03T19:10:17.242Z,94891.56
2023-08-03T19:12:46.819Z,94875.75
2023-08-03T19:15:16.674Z,94879.81
2023-08-03T19:17:47.574Z,94879.13
2023-08-03T19:20:17.217Z,94888.38
2023-08-03T19:22:46.696Z,94888.25
2023-08-03T19:25:16.455Z,94889.13
2023-08-03T19:27:46.103Z,94888.91
2023-08-03T19:30:15.656Z,94889.13
2023-08-03T19:32:48.194Z,94890.97
2023-08-03T19:35:18.501Z,94888.72
2023-08-03T19:37:48.355Z,94894.66
2023-08-03T19:40:18.045Z,94899.00
2023-08-03T19:42:47.613Z,94905.84
2023-08-03T19:45:21.364Z,94921.75
2023-08-03T19:47:54.324Z,94926.72
2023-08-03T19:50:27.485Z,94928.91
2023-08-03T19:55:31.089Z,94924.22
2023-08-03T20:08:15.893Z,94953.50
2023-08-03T20:10:46.496Z,94961.69
2023-08-03T20:13:15.966Z,94975.53
2023-08-03T20:18:22.138Z,94980.66
2023-08-03T20:20:52.001Z,94983.38
2023-08-03T20:23:21.542Z,94971.34
2023-08-03T20:25:51.000Z,94987.38
2023-08-03T20:30:53.152Z,94990.66
2023-08-03T20:33:24.790Z,94999.84
2023-08-03T20:43:35.810Z,95001.47
2023-08-03T20:46:09.868Z,95002.94
2023-08-03T20:48:40.946Z,95005.53
2023-08-03T20:51:10.765Z,94994.28
2023-08-03T20:53:41.488Z,94998.63
2023-08-03T20:56:11.277Z,95002.81
2023-08-03T20:58:40.914Z,94991.09
2023-08-03T21:01:10.554Z,94987.91
2023-08-03T21:03:43.203Z,94981.53
2023-08-03T21:06:13.796Z,94994.56
2023-08-03T21:08:43.408Z,95004.19
2023-08-03T21:11:14.846Z,94999.41
2023-08-03T21:13:45.499Z,95012.09
2023-08-03T21:16:16.512Z,95010.38
2023-08-03T21:21:22.843Z,95029.06
2023-08-03T21:23:52.460Z,95029.38
2023-08-03T21:26:22.128Z,95039.34
2023-08-03T21:28:51.910Z,95035.66
2023-08-03T21:31:21.722Z,95036.19
2023-08-03T21:33:52.840Z,95047.09
2023-08-03T21:36:22.534Z,95048.53
2023-08-03T21:38:52.526Z,95046.00
2023-08-03T21:41:22.115Z,95056.31
2023-08-03T21:43:51.757Z,95058.88
2023-08-03T21:46:21.774Z,95058.75
2023-08-03T21:48:54.314Z,95044.97
2023-08-03T21:51:23.997Z,95061.97
2023-08-03T21:53:53.697Z,95062.63
2023-08-03T21:56:23.386Z,95058.94
2023-08-03T21:58:53.118Z,95062.19
2023-08-03T22:01:22.831Z,95064.63
2023-08-03T22:03:53.860Z,95059.00
2023-08-03T22:06:23.886Z,95058.19
2023-08-03T22:08:53.507Z,95068.16
2023-08-03T22:11:23.402Z,95055.34
2023-08-03T22:13:53.041Z,95067.34
2023-08-03T22:16:22.830Z,95069.88
2023-08-03T22:18:53.892Z,95075.34
2023-08-03T22:21:23.564Z,95071.72
2023-08-03T22:23:53.212Z,95058.59
2023-08-03T22:26:22.980Z,95061.16
2023-08-03T22:28:52.668Z,95063.56
2023-08-03T22:31:22.311Z,95062.31
2023-08-03T22:33:53.341Z,95067.59
2023-08-03T22:36:22.993Z,95066.00
2023-08-03T22:38:52.655Z,95088.53
2023-08-03T22:41:22.284Z,95093.03
2023-08-03T22:43:51.868Z,95099.47
2023-08-03T22:46:23.068Z,95090.03
2023-08-03T22:48:55.626Z,95094.50
2023-08-03T22:51:25.399Z,95089.69
2023-08-03T22:53:55.044Z,95100.91
2023-08-03T22:56:24.688Z,95101.22
2023-08-03T22:58:54.322Z,95105.06
2023-08-03T23:01:24.785Z,95100.28
2023-08-03T23:03:55.974Z,95093.56
2023-08-03T23:06:26.993Z,95104.72
2023-08-03T23:08:57.463Z,95116.22
2023-08-03T23:11:27.257Z,95130.13
2023-08-03T23:13:59.946Z,95149.59
2023-08-03T23:16:29.648Z,95142.56
2023-08-03T23:19:00.626Z,95146.06
2023-08-03T23:21:30.186Z,95149.56
2023-08-03T23:23:59.841Z,95140.00
2023-08-03T23:26:29.312Z,95135.19
2023-08-03T23:28:58.883Z,95143.34
2023-08-03T23:31:28.606Z,95133.25
2023-08-03T23:33:59.560Z,95146.97
2023-08-03T23:36:29.096Z,95137.34
2023-08-03T23:38:58.635Z,95139.94
2023-08-03T23:41:28.064Z,95130.63
2023-08-03T23:43:57.592Z,95133.34
2023-08-03T23:46:27.118Z,95127.25
2023-08-03T23:48:56.609Z,95126.28
2023-08-03T23:51:27.468Z,95130.41
2023-08-03T23:53:56.927Z,95134.25
2023-08-03T23:56:26.388Z,95134.72
2023-08-03T23:58:55.815Z,95139.19
